createdAt,value
2023-04-30T00:01:08.933Z,98448.13
2023-04-30T00:05:10.965Z,98447.53
2023-04-30T00:09:12.975Z,98450.34
2023-04-30T00:13:15.055Z,98461.28
2023-04-30T00:17:17.075Z,98458.19
2023-04-30T00:21:19.122Z,98448.97
2023-04-30T00:25:21.379Z,98466.13
2023-04-30T00:29:23.423Z,98460.44
2023-04-30T00:33:25.446Z,98461.03
2023-04-30T00:37:27.495Z,98458.94
2023-04-30T00:41:31.767Z,98451.59
2023-04-30T00:45:33.816Z,98465.06
2023-04-30T00:49:35.842Z,98461.13
2023-04-30T00:53:40.338Z,98463.38
2023-04-30T00:57:42.459Z,98465.72
2023-04-30T01:01:44.662Z,98467.03
2023-04-30T01:05:46.705Z,98477.72
2023-04-30T01:09:48.859Z,98465.97
2023-04-30T01:14:04.240Z,98471.75
2023-04-30T01:18:12.709Z,98473.25
2023-04-30T01:22:37.381Z,98478.44
2023-04-30T01:26:53.299Z,98480.44
2023-04-30T01:30:55.534Z,98479.75
2023-04-30T01:34:57.641Z,98480.94
2023-04-30T01:39:12.303Z,98481.88
2023-04-30T01:43:48.228Z,98486.34
2023-04-30T01:48:02.293Z,98480.56
2023-04-30T01:52:20.846Z,98490.19
2023-04-30T01:56:30.508Z,98491.06
2023-04-30T02:00:33.717Z,98486.53
2023-04-30T02:04:36.322Z,98490.81
2023-04-30T02:08:39.259Z,98489.34
2023-04-30T02:12:41.325Z,98487.03
2023-04-30T02:16:43.465Z,98495.09
2023-04-30T02:20:45.658Z,98498.69
2023-04-30T02:24:47.666Z,98500.56
2023-04-30T02:28:49.917Z,98510.25
2023-04-30T02:32:51.973Z,98501.78
2023-04-30T02:36:53.999Z,98507.19
2023-04-30T02:40:56.126Z,98506.47
2023-04-30T02:44:58.123Z,98506.50
2023-04-30T02:49:00.206Z,98508.97
2023-04-30T02:53:02.415Z,98495.09
2023-04-30T02:57:04.489Z,98501.97
2023-04-30T03:01:06.878Z,98502.06
2023-04-30T03:05:09.175Z,98506.50
2023-04-30T03:09:11.372Z,98497.88
2023-04-30T03:13:13.381Z,98503.97
2023-04-30T03:17:15.533Z,98503.06
2023-04-30T03:21:17.560Z,98508.44
2023-04-30T03:25:19.550Z,98511.19
2023-04-30T03:29:21.571Z,98513.81
2023-04-30T03:33:23.634Z,98521.59
2023-04-30T03:37:25.904Z,98519.00
2023-04-30T03:41:27.965Z,98516.72
2023-04-30T03:45:30.357Z,98514.38
2023-04-30T03:49:32.514Z,98504.94
2023-04-30T03:53:35.138Z,98499.81
2023-04-30T03:57:38.952Z,98509.25
2023-04-30T04:01:41.543Z,98507.31
2023-04-30T04:05:43.678Z,98509.75
2023-04-30T04:09:45.789Z,98513.97
2023-04-30T04:13:47.888Z,98505.22
2023-04-30T04:17:49.980Z,98503.41
2023-04-30T04:21:52.496Z,98512.00
2023-04-30T04:25:54.525Z,98513.59
2023-04-30T04:29:56.982Z,98522.03
2023-04-30T04:34:00.422Z,98514.72
2023-04-30T04:38:02.798Z,98511.97
2023-04-30T04:42:05.174Z,98517.91
2023-04-30T04:46:09.637Z,98517.72
2023-04-30T04:50:13.231Z,98522.22
2023-04-30T04:54:15.243Z,98519.94
2023-04-30T04:58:17.287Z,98506.31
2023-04-30T05:02:21.253Z,98516.25
2023-04-30T05:06:23.342Z,98506.97
2023-04-30T05:10:25.470Z,98523.25
2023-04-30T05:14:27.505Z,98532.63
2023-04-30T05:18:29.524Z,98526.22
2023-04-30T05:22:31.617Z,98530.47
2023-04-30T05:26:33.672Z,98527.47
2023-04-30T05:30:35.910Z,98534.09
2023-04-30T05:34:37.891Z,98522.66
2023-04-30T05:38:40.165Z,98521.69
2023-04-30T05:42:43.678Z,98519.47
2023-04-30T05:46:45.896Z,98513.56
2023-04-30T05:50:47.903Z,98506.16
2023-04-30T05:54:50.656Z,98511.13
2023-04-30T05:58:52.763Z,98506.09
2023-04-30T06:02:54.873Z,98513.84
2023-04-30T06:06:56.934Z,98514.81
2023-04-30T06:10:59.103Z,98511.72
2023-04-30T06:15:01.276Z,98518.41
2023-04-30T06:19:03.311Z,98510.38
2023-04-30T06:23:05.512Z,98508.03
2023-04-30T06:27:07.599Z,98510.56
2023-04-30T06:31:09.683Z,98503.38
2023-04-30T06:35:11.767Z,98513.28
2023-04-30T06:39:17.062Z,98509.81
2023-04-30T06:43:19.096Z,98512.03
2023-04-30T06:47:21.138Z,98508.13
2023-04-30T06:51:23.127Z,98509.16
2023-04-30T06:55:25.199Z,98515.16
2023-04-30T06:59:27.204Z,98506.75
2023-04-30T07:03:29.359Z,98503.97
2023-04-30T07:07:32.418Z,98517.41
2023-04-30T07:11:34.420Z,98514.81
2023-04-30T07:15:38.093Z,98514.47
2023-04-30T07:19:40.143Z,98510.97
2023-04-30T07:23:44.020Z,98519.91
2023-04-30T07:27:46.334Z,98517.44
2023-04-30T07:31:48.376Z,98509.50
2023-04-30T07:35:51.342Z,98517.38
2023-04-30T07:39:53.585Z,98513.03
2023-04-30T07:43:55.825Z,98515.53
2023-04-30T07:47:57.847Z,98516.38
2023-04-30T07:52:01.365Z,98514.16
2023-04-30T07:56:03.683Z,98515.88
2023-04-30T08:00:06.673Z,98533.41
2023-04-30T08:04:14.426Z,98531.94
2023-04-30T08:08:16.438Z,98535.19
2023-04-30T08:12:19.028Z,98523.22
2023-04-30T08:16:21.080Z,98532.47
2023-04-30T08:20:26.254Z,98524.34
2023-04-30T08:24:28.271Z,98522.97
2023-04-30T08:28:30.943Z,98528.53
2023-04-30T08:32:36.654Z,98530.00
2023-04-30T08:36:38.712Z,98526.66
2023-04-30T08:40:50.820Z,98525.78
2023-04-30T08:44:54.046Z,98525.47
2023-04-30T08:48:56.164Z,98520.03
2023-04-30T08:52:59.139Z,98520.28
2023-04-30T08:57:01.525Z,98508.00
2023-04-30T09:01:06.808Z,98521.50
2023-04-30T09:05:12.530Z,98519.88
2023-04-30T09:09:16.126Z,98514.19
2023-04-30T09:13:18.128Z,98512.13
2023-04-30T09:17:23.372Z,98519.00
2023-04-30T09:21:33.013Z,98519.25
2023-04-30T09:25:42.389Z,98507.41
2023-04-30T09:29:45.051Z,98517.94
2023-04-30T09:33:47.533Z,98513.09
2023-04-30T09:37:49.592Z,98512.38
2023-04-30T09:41:54.462Z,98511.53
2023-04-30T09:45:58.646Z,98506.06
2023-04-30T09:50:00.748Z,98509.03
2023-04-30T09:54:04.579Z,98498.06
2023-04-30T09:58:07.441Z,98496.69
2023-04-30T10:02:10.615Z,98493.41
2023-04-30T10:06:18.444Z,98485.78
2023-04-30T10:10:21.628Z,98487.97
2023-04-30T10:14:27.029Z,98469.38
2023-04-30T10:18:33.799Z,98483.19
2023-04-30T10:22:36.534Z,98483.38
2023-04-30T10:26:38.967Z,98471.97
2023-04-30T10:30:43.137Z,98467.72
2023-04-30T10:35:13.418Z,98459.81
2023-04-30T10:39:21.248Z,98450.50
2023-04-30T10:43:24.565Z,98442.91
2023-04-30T10:47:30.738Z,98433.41
2023-04-30T10:51:47.458Z,98429.53
2023-04-30T10:56:00.509Z,98436.13
2023-04-30T11:00:14.312Z,98423.78
2023-04-30T11:04:16.625Z,98423.97
2023-04-30T11:08:21.088Z,98422.28
2023-04-30T11:12:28.290Z,98411.72
2023-04-30T11:16:31.489Z,98411.06
2023-04-30T11:20:33.708Z,98412.25
2023-04-30T11:24:52.343Z,98415.31
2023-04-30T11:28:56.348Z,98412.25
2023-04-30T11:32:59.699Z,98397.84
2023-04-30T11:37:03.550Z,98394.84
2023-04-30T11:41:06.815Z,98394.09
2023-04-30T11:45:13.839Z,98396.22
2023-04-30T11:49:15.999Z,98382.81
2023-04-30T11:53:18.536Z,98391.56
2023-04-30T11:57:20.566Z,98382.81
2023-04-30T12:01:29.202Z,98380.38
2023-04-30T12:05:31.235Z,98372.44
2023-04-30T12:09:33.236Z,98371.50
2023-04-30T12:13:35.249Z,98372.09
2023-04-30T12:17:37.308Z,98359.34
2023-04-30T12:21:41.944Z,98370.78
2023-04-30T12:25:44.239Z,98368.50
2023-04-30T12:29:47.384Z,98364.91
2023-04-30T12:33:56.411Z,98361.22
2023-04-30T12:38:04.445Z,98364.16
2023-04-30T12:42:06.434Z,98358.88
2023-04-30T12:46:08.590Z,98356.16
2023-04-30T12:50:15.031Z,98356.81
2023-04-30T12:54:31.481Z,98361.16
2023-04-30T12:58:33.515Z,98350.34
2023-04-30T13:02:35.803Z,98337.31
2023-04-30T13:06:37.948Z,98332.25
2023-04-30T13:10:40.202Z,98337.00
2023-04-30T13:14:42.310Z,98328.97
2023-04-30T13:18:44.363Z,98320.50
2023-04-30T13:22:46.440Z,98321.03
2023-04-30T13:26:48.810Z,98305.06
2023-04-30T13:30:50.868Z,98290.63
2023-04-30T13:34:55.030Z,98297.25
2023-04-30T13:38:58.346Z,98294.47
2023-04-30T13:43:00.396Z,98311.22
2023-04-30T13:47:02.514Z,98288.91
2023-04-30T13:51:04.746Z,98283.09
2023-04-30T13:55:07.583Z,98280.34
2023-04-30T13:59:09.624Z,98274.16
2023-04-30T14:03:12.536Z,98274.06
2023-04-30T14:07:14.791Z,98282.69
2023-04-30T14:11:16.854Z,98279.22
2023-04-30T14:15:18.970Z,98284.94
2023-04-30T14:19:22.593Z,98274.72
2023-04-30T14:23:24.633Z,98257.41
2023-04-30T14:27:26.896Z,98258.09
2023-04-30T14:31:29.006Z,98255.28
2023-04-30T14:35:31.046Z,98258.06
2023-04-30T14:39:33.024Z,98242.00
2023-04-30T14:43:35.039Z,98253.88
2023-04-30T14:47:37.196Z,98257.09
2023-04-30T14:51:39.290Z,98247.50
2023-04-30T14:55:41.841Z,98252.09
2023-04-30T14:59:43.929Z,98236.84
2023-04-30T15:03:46.568Z,98237.94
2023-04-30T15:07:48.759Z,98231.47
2023-04-30T15:11:50.900Z,98231.59
2023-04-30T15:15:53.127Z,98223.47
2023-04-30T15:19:56.257Z,98218.34
2023-04-30T15:23:58.428Z,98219.94
2023-04-30T15:28:00.709Z,98206.16
2023-04-30T15:32:02.743Z,98205.88
2023-04-30T15:36:05.350Z,98213.81
2023-04-30T15:40:10.755Z,98206.69
2023-04-30T15:44:12.910Z,98201.38
2023-04-30T15:48:15.018Z,98204.75
2023-04-30T15:52:17.018Z,98196.91
2023-04-30T15:56:20.342Z,98190.56
2023-04-30T16:00:23.758Z,98196.38
2023-04-30T16:04:25.835Z,98194.22
2023-04-30T16:08:28.420Z,98199.19
2023-04-30T16:12:30.463Z,98205.84
2023-04-30T16:16:32.520Z,98185.53
2023-04-30T16:20:36.881Z,98183.25
2023-04-30T16:24:38.978Z,98172.06
2023-04-30T16:28:40.969Z,98176.00
2023-04-30T16:32:43.066Z,98177.53
2023-04-30T16:36:45.142Z,98181.72
2023-04-30T16:40:47.762Z,98175.63
2023-04-30T16:44:49.895Z,98175.63
2023-04-30T16:48:51.981Z,98169.69
2023-04-30T16:52:54.082Z,98174.94
2023-04-30T16:56:56.106Z,98175.44
2023-04-30T17:00:58.128Z,98162.25
2023-04-30T17:05:00.156Z,98161.88
2023-04-30T17:09:02.156Z,98164.81
2023-04-30T17:13:05.490Z,98171.06
2023-04-30T17:17:07.672Z,98155.28
2023-04-30T17:21:09.736Z,98153.69
2023-04-30T17:25:11.947Z,98156.72
2023-04-30T17:29:14.100Z,98163.81
2023-04-30T17:33:16.104Z,98153.97
2023-04-30T17:37:18.241Z,98160.97
2023-04-30T17:41:20.338Z,98158.34
2023-04-30T17:45:22.378Z,98160.69
2023-04-30T17:49:25.721Z,98160.56
2023-04-30T17:53:27.717Z,98152.78
2023-04-30T17:57:29.728Z,98152.75
2023-04-30T18:01:31.922Z,98152.56
2023-04-30T18:05:35.552Z,98147.25
2023-04-30T18:09:37.889Z,98143.63
2023-04-30T18:13:39.970Z,98146.69
2023-04-30T18:17:42.330Z,98144.47
2023-04-30T18:21:44.406Z,98154.78
2023-04-30T18:25:47.517Z,98148.31
2023-04-30T18:29:50.239Z,98148.84
2023-04-30T18:33:52.315Z,98141.94
2023-04-30T18:37:55.568Z,98149.09
2023-04-30T18:41:57.557Z,98141.06
2023-04-30T18:45:59.577Z,98147.31
2023-04-30T18:50:01.595Z,98143.06
2023-04-30T18:54:03.676Z,98142.19
2023-04-30T18:58:05.722Z,98137.84
2023-04-30T19:02:07.969Z,98143.91
2023-04-30T19:06:10.191Z,98145.50
2023-04-30T19:10:12.453Z,98140.94
2023-04-30T19:14:14.629Z,98145.03
2023-04-30T19:18:17.718Z,98165.28
2023-04-30T19:22:19.726Z,98153.78
2023-04-30T19:26:22.537Z,98154.69
2023-04-30T19:30:24.557Z,98153.13
2023-04-30T19:34:27.015Z,98168.13
2023-04-30T19:38:28.992Z,98168.13
2023-04-30T19:42:32.297Z,98168.97
2023-04-30T19:46:34.715Z,98174.25
2023-04-30T19:50:44.910Z,98173.38
2023-04-30T19:54:49.958Z,98176.94
2023-04-30T19:58:52.037Z,98183.84
2023-04-30T20:02:54.128Z,98182.34
2023-04-30T20:06:58.220Z,98174.69
2023-04-30T20:11:01.372Z,98178.38
2023-04-30T20:15:05.726Z,98170.72
2023-04-30T20:19:07.815Z,98174.66
2023-04-30T20:23:17.438Z,98187.47
2023-04-30T20:27:19.460Z,98179.44
2023-04-30T20:31:21.493Z,98182.69
2023-04-30T20:35:24.094Z,98179.81
2023-04-30T20:39:26.639Z,98174.47
2023-04-30T20:43:28.745Z,98182.09
2023-04-30T20:47:30.790Z,98183.63
2023-04-30T20:51:32.838Z,98174.09
2023-04-30T20:55:34.824Z,98171.44
2023-04-30T20:59:37.327Z,98181.88
2023-04-30T21:03:39.385Z,98178.28
2023-04-30T21:07:41.494Z,98181.19
2023-04-30T21:11:43.526Z,98179.78
2023-04-30T21:15:47.066Z,98182.00
2023-04-30T21:19:49.272Z,98189.63
2023-04-30T21:23:51.442Z,98190.09
2023-04-30T21:27:53.534Z,98192.00
2023-04-30T21:31:56.293Z,98188.50
2023-04-30T21:35:58.300Z,98183.81
2023-04-30T21:40:00.398Z,98189.88
2023-04-30T21:44:02.387Z,98181.84
2023-04-30T21:48:05.475Z,98185.97
2023-04-30T21:52:08.333Z,98186.78
2023-04-30T21:56:11.236Z,98178.78
2023-04-30T22:00:14.717Z,98178.00
2023-04-30T22:04:25.172Z,98179.13
2023-04-30T22:08:27.997Z,98177.66
2023-04-30T22:12:30.057Z,98172.09
2023-04-30T22:16:32.923Z,98176.06
2023-04-30T22:20:35.065Z,98172.47
2023-04-30T22:24:37.103Z,98177.53
2023-04-30T22:28:39.077Z,98172.81
2023-04-30T22:32:41.122Z,98170.38
2023-04-30T22:36:44.340Z,98174.56
2023-04-30T22:40:47.024Z,98172.59
2023-04-30T22:44:50.370Z,98159.16
2023-04-30T22:48:53.565Z,98167.00
2023-04-30T22:52:56.279Z,98166.09
2023-04-30T22:56:58.371Z,98156.56
2023-04-30T23:01:00.561Z,98161.72
2023-04-30T23:05:03.632Z,98171.78
2023-04-30T23:09:05.705Z,98167.56
2023-04-30T23:13:07.850Z,98164.97
2023-04-30T23:17:09.933Z,98161.13
2023-04-30T23:21:12.050Z,98149.91
2023-04-30T23:25:14.069Z,98163.66
2023-04-30T23:29:16.333Z,98153.13
2023-04-30T23:33:19.229Z,98146.72
2023-04-30T23:37:21.571Z,98142.59
2023-04-30T23:41:23.537Z,98142.47
2023-04-30T23:45:25.525Z,98137.38
2023-04-30T23:49:27.529Z,98126.34
2023-04-30T23:53:30.305Z,98124.84
2023-04-30T23:57:32.372Z,98113.00
